Meath Environmental Platform

Observations

Time Sensor AQI SAQ Temp °C Hum % Pres Pa CO μg/m³ H₂S μg/m³ NO μg/m³ NO₂ μg/m³ O₃ μg/m³ SO₂ μg/m³ CO₂e PPM VOC PPM PM1 μg/m³ PM2.5 μg/m³ PM4 μg/m³ PM10 μg/m³ TPS µm
Tuesday 11 August 2026
22:15 Trim Market St 3 23.1 48 61,978 0 1.37 1.28 28.11 53.45 0 1.43 4.62 6.77
22:15 Trim Patrick St 3 22.3 47 69,185 0 15.63 1.44 32.75 46.7 7.16 4.57 10.44 11.48
22:14 Trim Market St 3 23.1 48 62,094 0 1.69 1.29 35.92 49.93 0 2.85 6.18 7.53
22:14 Trim Patrick St 3 22.3 48 69,161 0 14.92 1.42 32.37 49.4 7.04 4.57 11.94 13.14
22:13 Trim Market St 3 23.1 48 62,164 0 0 1.31 22.21 51.02 0 3.56 6.18 7.53
22:13 Trim Patrick St 3 22.3 50 69,187 0 15.61 1.33 27.23 46.56 7.4 5.43 11.72 12.89
22:12 Trim Market St 3 23.1 48 62,092 0 2.19 1.32 25.85 52.85 0 2.85 5.67 6.77
22:12 Trim Patrick St 3 22.3 50 69,159 0 15.5 1.33 32.54 46.01 7.41 6.29 11.77 12.95
22:11 Trim Market St 3 23.2 47 62,118 0 2.24 1.31 32.86 45.65 0 2.85 5.67 6.77
22:10 Trim Market St 3 23.2 48 62,268 0 1.74 1.3 38.31 50.07 0 2.85 5.67 8.29
22:10 Trim Patrick St 3 22.4 51 69,130 0 16.32 1.24 32.44 48.98 8.03 5.43 10.92 12.01
22:09 Trim Market St 3 23.2 48 62,357 0 0 1.3 16.46 57.09 0 4.28 6.7 8.29
22:09 Trim Patrick St 3 22.4 51 69,114 0 16.32 1.28 29.17 45.91 8.1 4.57 9.4 10.33
22:08 Trim Patrick St 3 22.5 48 69,118 0 16.61 1.38 36.62 41.95 7.69 4.57 10.41 11.45
22:07 Trim Market St 3 23.3 48 62,245 0 3.22 1.27 33.96 53.49 0 2.85 5.15 6.77
22:07 Trim Patrick St 3 22.5 48 69,126 0 16.34 1.37 35.41 50.58 7.7 5.43 11.14 12.26
22:06 Trim Patrick St 3 22.5 51 69,138 0 17.43 1.28 34.72 47.13 7.75 5.43 10.93 12.02
22:05 Trim Market St 3 23.3 47 62,397 0 0.89 1.27 21.05 57.1 0 3.56 5.16 7.53
22:05 Trim Patrick St 3 22.5 49 69,120 0 17.51 1.38 32.62 42.83 7.96 4.57 11.06 12.17
22:04 Trim Market St 3 23.4 47 62,375 0 1.89 1.25 26.29 52.89 0 2.14 5.16 6